ANA1210 ROAH-RJFF
Flight info
| Callsign | ANA1210 |
|---|---|
| Flight time | 1h 35m |
| Altitude | 37000 |
| Route | AMAMI Y25 GOKYO/N0460F360 Y25 ISKUP |
| Aircraft | B738/M-SDE2E3FGHIRWXY/LB1 |
Departure
| Time | 2026-04-26 18:44 |
|---|---|
| Airport | Naha International Airport (ROAH) |
Arrival
| Time | 2026-04-26 20:19 |
|---|---|
| Airport | Fukuoka Airport (RJFF) |
| Time | Latitude | Longitude | Altitude | Speed | Heading |
|---|---|---|---|---|---|
| 2026-04-26 18:19 | 26.20573 | 127.65005 | 21 ft | 0 kts | 147° |
| 2026-04-26 18:32 | 26.20581 | 127.65000 | 21 ft | 3 kts | 145° |
| 2026-04-26 18:32 | 26.20597 | 127.64986 | 21 ft | 3 kts | 139° |
| 2026-04-26 18:32 | 26.20612 | 127.64971 | 21 ft | 3 kts | 137° |
| 2026-04-26 18:32 | 26.20627 | 127.64956 | 21 ft | 3 kts | 152° |
| 2026-04-26 18:33 | 26.20638 | 127.64950 | 21 ft | 3 kts | 217° |
| 2026-04-26 18:33 | 26.20638 | 127.64943 | 21 ft | 1 kts | 266° |
| 2026-04-26 18:33 | 26.20637 | 127.64922 | 21 ft | 3 kts | 267° |
| 2026-04-26 18:33 | 26.20636 | 127.64900 | 21 ft | 3 kts | 267° |
| 2026-04-26 18:34 | 26.20635 | 127.64877 | 21 ft | 3 kts | 268° |
| 2026-04-26 18:34 | 26.20634 | 127.64857 | 21 ft | 3 kts | 265° |
| 2026-04-26 18:34 | 26.20631 | 127.64834 | 21 ft | 3 kts | 259° |
| 2026-04-26 18:34 | 26.20626 | 127.64812 | 21 ft | 3 kts | 253° |
| 2026-04-26 18:35 | 26.20619 | 127.64791 | 21 ft | 3 kts | 245° |
| 2026-04-26 18:35 | 26.20608 | 127.64773 | 21 ft | 3 kts | 232° |
| 2026-04-26 18:35 | 26.20592 | 127.64760 | 21 ft | 3 kts | 211° |
| 2026-04-26 18:35 | 26.20574 | 127.64755 | 21 ft | 3 kts | 184° |
| 2026-04-26 18:36 | 26.20565 | 127.64756 | 21 ft | 0 kts | 176° |
| 2026-04-26 18:37 | 26.20544 | 127.64757 | 21 ft | 0 kts | 176° |
| 2026-04-26 18:38 | 26.20541 | 127.64757 | 21 ft | 1 kts | 177° |
| 2026-04-26 18:38 | 26.20526 | 127.64758 | 21 ft | 3 kts | 178° |
| 2026-04-26 18:38 | 26.20497 | 127.64759 | 21 ft | 5 kts | 178° |
| 2026-04-26 18:38 | 26.20456 | 127.64761 | 21 ft | 7 kts | 178° |
| 2026-04-26 18:39 | 26.20300 | 127.64769 | 21 ft | 15 kts | 179° |
| 2026-04-26 18:39 | 26.20234 | 127.64771 | 21 ft | 10 kts | 178° |
| 2026-04-26 18:39 | 26.20151 | 127.64775 | 21 ft | 14 kts | 177° |
| 2026-04-26 18:40 | 26.20042 | 127.64780 | 21 ft | 17 kts | 178° |
| 2026-04-26 18:40 | 26.19941 | 127.64785 | 21 ft | 12 kts | 178° |
| 2026-04-26 18:40 | 26.19848 | 127.64791 | 21 ft | 15 kts | 177° |
| 2026-04-26 18:40 | 26.19735 | 127.64795 | 21 ft | 18 kts | 179° |
| 2026-04-26 18:41 | 26.19600 | 127.64802 | 21 ft | 21 kts | 177° |
| 2026-04-26 18:41 | 26.19447 | 127.64809 | 21 ft | 23 kts | 178° |
| 2026-04-26 18:41 | 26.19291 | 127.64816 | 21 ft | 21 kts | 177° |
| 2026-04-26 18:41 | 26.19134 | 127.64823 | 21 ft | 24 kts | 177° |
| 2026-04-26 18:42 | 26.18965 | 127.64831 | 22 ft | 24 kts | 177° |
| 2026-04-26 18:42 | 26.18841 | 127.64837 | 22 ft | 16 kts | 177° |
| 2026-04-26 18:42 | 26.18717 | 127.64842 | 22 ft | 19 kts | 178° |
| 2026-04-26 18:42 | 26.18582 | 127.64849 | 22 ft | 15 kts | 178° |
| 2026-04-26 18:43 | 26.18514 | 127.64777 | 21 ft | 16 kts | 268° |
| 2026-04-26 18:43 | 26.18537 | 127.64648 | 21 ft | 18 kts | 325° |
| 2026-04-26 18:43 | 26.18817 | 127.64628 | 24 ft | 77 kts | 357° |
| 2026-04-26 18:43 | 26.19602 | 127.64591 | 20 ft | 146 kts | 357° |
| 2026-04-26 18:44 | 26.20768 | 127.64518 | 283 ft | 179 kts | 357° |
| 2026-04-26 18:44 | 26.21964 | 127.64434 | 1264 ft | 169 kts | 356° |
| 2026-04-26 18:44 | 26.23166 | 127.64389 | 1978 ft | 180 kts | 358° |
| 2026-04-26 18:44 | 26.24513 | 127.64348 | 2232 ft | 206 kts | 358° |
| 2026-04-26 18:45 | 26.25982 | 127.64071 | 2399 ft | 225 kts | 334° |
| 2026-04-26 18:45 | 26.27388 | 127.63169 | 2650 ft | 239 kts | 328° |
| 2026-04-26 18:45 | 26.28881 | 127.62195 | 2846 ft | 258 kts | 329° |
| 2026-04-26 18:45 | 26.30475 | 127.61172 | 3305 ft | 269 kts | 329° |
| 2026-04-26 18:46 | 26.32086 | 127.60146 | 4034 ft | 270 kts | 330° |
| 2026-04-26 18:46 | 26.33728 | 127.59107 | 4764 ft | 272 kts | 330° |
| 2026-04-26 18:46 | 26.35386 | 127.58061 | 5445 ft | 275 kts | 330° |
| 2026-04-26 18:46 | 26.37068 | 127.57001 | 6125 ft | 279 kts | 330° |
| 2026-04-26 18:47 | 26.38770 | 127.55928 | 6806 ft | 282 kts | 330° |
| 2026-04-26 18:47 | 26.40367 | 127.54652 | 7451 ft | 285 kts | 310° |
| 2026-04-26 18:47 | 26.41276 | 127.52705 | 8123 ft | 286 kts | 282° |
| 2026-04-26 18:47 | 26.41277 | 127.50497 | 8782 ft | 289 kts | 255° |
| 2026-04-26 18:48 | 26.40408 | 127.48511 | 9431 ft | 291 kts | 232° |
| 2026-04-26 18:48 | 26.39085 | 127.46779 | 10099 ft | 295 kts | 228° |
| 2026-04-26 18:48 | 26.37682 | 127.45033 | 10397 ft | 312 kts | 228° |
| 2026-04-26 18:48 | 26.36191 | 127.43162 | 10554 ft | 332 kts | 227° |
| 2026-04-26 18:49 | 26.34347 | 127.41512 | 10662 ft | 351 kts | 206° |
| 2026-04-26 18:49 | 26.31940 | 127.40806 | 10837 ft | 366 kts | 183° |
| 2026-04-26 18:49 | 26.29401 | 127.40806 | 11232 ft | 372 kts | 179° |
| 2026-04-26 18:49 | 26.26798 | 127.40878 | 11720 ft | 375 kts | 179° |
| 2026-04-26 18:50 | 26.24179 | 127.40948 | 12242 ft | 377 kts | 179° |
| 2026-04-26 18:50 | 26.21544 | 127.40997 | 12743 ft | 379 kts | 179° |
| 2026-04-26 18:50 | 26.18891 | 127.41029 | 13205 ft | 383 kts | 180° |
| 2026-04-26 18:50 | 26.16213 | 127.41061 | 13657 ft | 386 kts | 178° |
| 2026-04-26 18:51 | 26.13572 | 127.41628 | 14059 ft | 390 kts | 157° |
| 2026-04-26 18:51 | 26.11293 | 127.43262 | 14526 ft | 393 kts | 137° |
| 2026-04-26 18:51 | 26.09640 | 127.45643 | 14962 ft | 397 kts | 118° |
| 2026-04-26 18:51 | 26.08767 | 127.48567 | 15370 ft | 400 kts | 99° |
| 2026-04-26 18:52 | 26.08793 | 127.51659 | 15752 ft | 404 kts | 81° |
| 2026-04-26 18:52 | 26.09341 | 127.54736 | 16147 ft | 406 kts | 78° |
| 2026-04-26 18:52 | 26.09941 | 127.57829 | 16488 ft | 409 kts | 78° |
| 2026-04-26 18:52 | 26.10545 | 127.60902 | 16819 ft | 412 kts | 78° |
| 2026-04-26 18:53 | 26.11147 | 127.64029 | 17155 ft | 414 kts | 78° |
| 2026-04-26 18:53 | 26.11740 | 127.67178 | 17478 ft | 417 kts | 78° |
| 2026-04-26 18:53 | 26.12327 | 127.70359 | 17783 ft | 419 kts | 78° |
| 2026-04-26 18:53 | 26.12910 | 127.73552 | 18074 ft | 421 kts | 79° |
| 2026-04-26 18:54 | 26.13493 | 127.76757 | 18352 ft | 423 kts | 79° |
| 2026-04-26 18:54 | 26.14077 | 127.79982 | 18620 ft | 425 kts | 79° |
| 2026-04-26 18:54 | 26.14663 | 127.83216 | 18875 ft | 427 kts | 79° |
| 2026-04-26 18:54 | 26.15244 | 127.86424 | 19115 ft | 429 kts | 79° |
| 2026-04-26 18:55 | 26.15834 | 127.89686 | 19350 ft | 431 kts | 79° |
| 2026-04-26 18:55 | 26.16527 | 127.92941 | 19551 ft | 433 kts | 70° |
| 2026-04-26 18:55 | 26.18028 | 127.95861 | 19748 ft | 435 kts | 51° |
| 2026-04-26 18:55 | 26.20208 | 127.98128 | 19981 ft | 436 kts | 34° |
| 2026-04-26 18:56 | 26.22790 | 127.99912 | 20207 ft | 436 kts | 31° |
| 2026-04-26 18:56 | 26.25412 | 128.01638 | 20333 ft | 440 kts | 30° |
| 2026-04-26 18:56 | 26.28071 | 128.03376 | 20362 ft | 445 kts | 30° |
| 2026-04-26 18:56 | 26.30746 | 128.05139 | 20478 ft | 447 kts | 31° |
| 2026-04-26 18:57 | 26.33427 | 128.06925 | 20660 ft | 447 kts | 31° |
| 2026-04-26 18:57 | 26.34290 | 128.07504 | 20715 ft | 447 kts | 31° |
| 2026-04-26 18:57 | 26.38732 | 128.10500 | 20952 ft | 449 kts | 31° |
| 2026-04-26 18:57 | 26.41404 | 128.12311 | 21064 ft | 451 kts | 31° |
| 2026-04-26 18:58 | 26.44105 | 128.14145 | 21111 ft | 454 kts | 31° |
| 2026-04-26 18:58 | 26.46806 | 128.15980 | 21281 ft | 453 kts | 31° |
| 2026-04-26 18:58 | 26.49467 | 128.17787 | 21449 ft | 453 kts | 31° |
| 2026-04-26 18:58 | 26.52166 | 128.19622 | 21554 ft | 454 kts | 31° |
| 2026-04-26 18:59 | 26.54871 | 128.21460 | 21643 ft | 455 kts | 31° |
| 2026-04-26 18:59 | 26.57585 | 128.23306 | 21750 ft | 456 kts | 31° |
| 2026-04-26 18:59 | 26.60296 | 128.25151 | 21856 ft | 457 kts | 31° |
| 2026-04-26 18:59 | 26.63020 | 128.27006 | 21952 ft | 457 kts | 31° |
| 2026-04-26 19:00 | 26.65706 | 128.28835 | 22039 ft | 458 kts | 31° |
| 2026-04-26 19:00 | 26.68402 | 128.30759 | 22113 ft | 459 kts | 37° |
| 2026-04-26 19:00 | 26.70636 | 128.33318 | 22184 ft | 459 kts | 52° |
| 2026-04-26 19:00 | 26.72530 | 128.36107 | 22641 ft | 450 kts | 53° |
| 2026-04-26 19:01 | 26.74415 | 128.38866 | 23122 ft | 441 kts | 52° |
| 2026-04-26 19:01 | 26.76285 | 128.41563 | 23554 ft | 436 kts | 52° |
| 2026-04-26 19:01 | 26.78174 | 128.44253 | 23571 ft | 441 kts | 52° |
| 2026-04-26 19:01 | 26.80089 | 128.46960 | 23604 ft | 445 kts | 51° |
| 2026-04-26 19:02 | 26.81996 | 128.49644 | 23629 ft | 448 kts | 51° |
| 2026-04-26 19:02 | 26.83943 | 128.52385 | 23652 ft | 451 kts | 51° |
| 2026-04-26 19:02 | 26.85907 | 128.55152 | 23672 ft | 454 kts | 51° |
| 2026-04-26 19:02 | 26.86574 | 128.56092 | 23679 ft | 455 kts | 51° |
| 2026-04-26 19:03 | 26.89863 | 128.60736 | 23713 ft | 459 kts | 51° |
| 2026-04-26 19:03 | 26.91858 | 128.63554 | 23727 ft | 461 kts | 51° |
| 2026-04-26 19:03 | 26.94095 | 128.66126 | 23712 ft | 463 kts | 37° |
| 2026-04-26 19:03 | 26.96797 | 128.67999 | 23755 ft | 464 kts | 29° |
| 2026-04-26 19:04 | 26.99662 | 128.69711 | 23759 ft | 465 kts | 27° |
| 2026-04-26 19:04 | 27.02557 | 128.71372 | 23767 ft | 466 kts | 27° |
| 2026-04-26 19:04 | 27.04843 | 128.72678 | 29034 ft | 467 kts | 27° |
| 2026-04-26 19:04 | 27.07700 | 128.74331 | 29004 ft | 468 kts | 27° |
| 2026-04-26 19:05 | 27.12893 | 128.77408 | 36438 ft | 465 kts | 28° |
| 2026-04-26 19:05 | 27.15746 | 128.79131 | 36577 ft | 464 kts | 28° |
| 2026-04-26 19:06 | 27.20472 | 128.82008 | 36758 ft | 464 kts | 28° |
| 2026-04-26 19:06 | 27.23301 | 128.83734 | 36887 ft | 462 kts | 28° |
| 2026-04-26 19:06 | 27.27056 | 128.86026 | 36993 ft | 463 kts | 28° |
| 2026-04-26 19:07 | 27.31813 | 128.88928 | 37011 ft | 465 kts | 28° |
| 2026-04-26 19:07 | 27.37497 | 128.92396 | 37011 ft | 469 kts | 28° |
| 2026-04-26 19:08 | 27.43260 | 128.95916 | 37009 ft | 472 kts | 28° |
| 2026-04-26 19:08 | 27.49065 | 128.99466 | 37010 ft | 475 kts | 28° |
| 2026-04-26 19:09 | 27.54893 | 129.03034 | 37008 ft | 478 kts | 28° |
| 2026-04-26 19:09 | 27.60718 | 129.06605 | 37006 ft | 480 kts | 28° |
| 2026-04-26 19:10 | 27.66616 | 129.10225 | 37003 ft | 483 kts | 28° |
| 2026-04-26 19:10 | 27.72454 | 129.13813 | 37004 ft | 475 kts | 28° |
| 2026-04-26 19:11 | 27.78208 | 129.17354 | 36990 ft | 466 kts | 28° |
| 2026-04-26 19:11 | 27.83859 | 129.20835 | 37003 ft | 459 kts | 28° |
| 2026-04-26 19:12 | 27.89415 | 129.24262 | 36993 ft | 458 kts | 28° |
| 2026-04-26 19:12 | 27.95094 | 129.27768 | 37011 ft | 469 kts | 28° |
| 2026-04-26 19:13 | 28.00870 | 129.31340 | 37009 ft | 478 kts | 28° |
| 2026-04-26 19:13 | 28.06721 | 129.34962 | 37007 ft | 485 kts | 28° |
| 2026-04-26 19:14 | 28.12688 | 129.38661 | 37004 ft | 491 kts | 28° |
| 2026-04-26 19:14 | 28.18727 | 129.42408 | 37002 ft | 496 kts | 28° |
| 2026-04-26 19:15 | 28.24781 | 129.46171 | 37002 ft | 500 kts | 28° |
| 2026-04-26 19:15 | 28.30921 | 129.49992 | 37003 ft | 503 kts | 28° |
| 2026-04-26 19:16 | 28.37028 | 129.53798 | 36989 ft | 492 kts | 28° |
| 2026-04-26 19:16 | 28.42843 | 129.57537 | 35150 ft | 489 kts | 32° |
| 2026-04-26 19:16 | 28.45840 | 129.59205 | 35438 ft | 476 kts | 17° |
| 2026-04-26 19:17 | 28.49095 | 129.59922 | 35134 ft | 478 kts | 6° |
| 2026-04-26 19:17 | 28.52421 | 129.60254 | 34906 ft | 480 kts | 4° |
| 2026-04-26 19:17 | 28.55761 | 129.60510 | 34949 ft | 483 kts | 4° |
| 2026-04-26 19:18 | 28.62464 | 129.61197 | 34994 ft | 489 kts | 6° |
| 2026-04-26 19:18 | 28.69261 | 129.62162 | 35035 ft | 495 kts | 7° |
| 2026-04-26 19:19 | 28.76132 | 129.63236 | 35066 ft | 499 kts | 7° |
| 2026-04-26 19:19 | 28.83045 | 129.64317 | 35093 ft | 503 kts | 7° |
| 2026-04-26 19:20 | 28.89982 | 129.65388 | 35302 ft | 502 kts | 7° |
| 2026-04-26 19:20 | 28.96888 | 129.66450 | 35321 ft | 505 kts | 7° |
| 2026-04-26 19:21 | 29.03851 | 129.67524 | 35529 ft | 503 kts | 7° |
| 2026-04-26 19:21 | 29.07320 | 129.68060 | 35651 ft | 502 kts | 7° |
| 2026-04-26 19:21 | 29.10772 | 129.68593 | 35839 ft | 498 kts | 7° |
| 2026-04-26 19:22 | 29.17610 | 129.69639 | 35829 ft | 491 kts | 7° |
| 2026-04-26 19:22 | 29.24351 | 129.70643 | 35837 ft | 485 kts | 7° |
| 2026-04-26 19:23 | 29.30974 | 129.71634 | 35837 ft | 480 kts | 7° |
| 2026-04-26 19:23 | 29.37585 | 129.72631 | 35837 ft | 476 kts | 7° |
| 2026-04-26 19:24 | 29.44091 | 129.73635 | 35842 ft | 473 kts | 7° |
| 2026-04-26 19:24 | 29.53961 | 129.75169 | 35925 ft | 482 kts | 7° |
| 2026-04-26 19:25 | 29.59526 | 129.76032 | 35968 ft | 487 kts | 7° |
| 2026-04-26 19:25 | 29.63641 | 129.76663 | 40367 ft | 490 kts | 7° |
| 2026-04-26 19:25 | 29.67021 | 129.77186 | 40177 ft | 488 kts | 7° |
| 2026-04-26 19:26 | 29.70346 | 129.77706 | 40000 ft | 486 kts | 7° |
| 2026-04-26 19:26 | 29.73704 | 129.78231 | 39819 ft | 484 kts | 7° |
| 2026-04-26 19:26 | 29.77040 | 129.78753 | 39637 ft | 483 kts | 7° |
| 2026-04-26 19:26 | 29.80343 | 129.79268 | 39455 ft | 482 kts | 7° |
| 2026-04-26 19:27 | 29.83656 | 129.79785 | 39272 ft | 480 kts | 7° |
| 2026-04-26 19:27 | 29.86973 | 129.80302 | 39088 ft | 479 kts | 7° |
| 2026-04-26 19:27 | 29.90274 | 129.80817 | 38904 ft | 479 kts | 7° |
| 2026-04-26 19:27 | 29.93577 | 129.81333 | 38720 ft | 478 kts | 7° |
| 2026-04-26 19:28 | 29.96879 | 129.81849 | 38534 ft | 477 kts | 7° |
| 2026-04-26 19:28 | 30.00176 | 129.82364 | 38349 ft | 476 kts | 7° |
| 2026-04-26 19:28 | 30.03427 | 129.82819 | 38166 ft | 476 kts | 6° |
| 2026-04-26 19:28 | 30.06733 | 129.83184 | 37981 ft | 475 kts | 5° |
| 2026-04-26 19:29 | 30.10033 | 129.83511 | 37760 ft | 476 kts | 5° |
| 2026-04-26 19:29 | 30.13338 | 129.83837 | 37574 ft | 475 kts | 5° |
| 2026-04-26 19:29 | 30.16638 | 129.84175 | 37397 ft | 475 kts | 5° |
| 2026-04-26 19:29 | 30.19915 | 129.84523 | 37272 ft | 473 kts | 5° |
| 2026-04-26 19:30 | 30.23152 | 129.84876 | 37147 ft | 472 kts | 5° |
| 2026-04-26 19:30 | 30.26422 | 129.85235 | 37039 ft | 470 kts | 5° |
| 2026-04-26 19:30 | 30.31808 | 129.85827 | 37002 ft | 464 kts | 5° |
| 2026-04-26 19:31 | 30.39286 | 129.86644 | 36993 ft | 457 kts | 5° |
| 2026-04-26 19:31 | 30.45548 | 129.87327 | 36994 ft | 452 kts | 5° |
| 2026-04-26 19:32 | 30.51796 | 129.88010 | 36996 ft | 448 kts | 5° |
| 2026-04-26 19:32 | 30.57991 | 129.88688 | 36999 ft | 445 kts | 5° |
| 2026-04-26 19:33 | 30.64109 | 129.89358 | 37001 ft | 442 kts | 5° |
| 2026-04-26 19:33 | 30.70228 | 129.90030 | 37000 ft | 440 kts | 5° |
| 2026-04-26 19:34 | 30.76290 | 129.90696 | 37000 ft | 438 kts | 5° |
| 2026-04-26 19:34 | 30.82371 | 129.91365 | 37001 ft | 437 kts | 5° |
| 2026-04-26 19:35 | 30.88391 | 129.92027 | 36999 ft | 436 kts | 5° |
| 2026-04-26 19:35 | 30.94434 | 129.92692 | 37002 ft | 435 kts | 5° |
| 2026-04-26 19:36 | 30.99453 | 129.93244 | 37001 ft | 435 kts | 5° |
| 2026-04-26 19:36 | 31.06494 | 129.94021 | 37001 ft | 434 kts | 5° |
| 2026-04-26 19:37 | 31.12469 | 129.94681 | 37001 ft | 434 kts | 5° |
| 2026-04-26 19:37 | 31.18507 | 129.95348 | 37009 ft | 437 kts | 5° |
| 2026-04-26 19:38 | 31.24675 | 129.96031 | 37013 ft | 452 kts | 5° |
| 2026-04-26 19:38 | 31.30991 | 129.96709 | 37011 ft | 464 kts | 4° |
| 2026-04-26 19:39 | 31.37517 | 129.97230 | 37008 ft | 473 kts | 3° |
| 2026-04-26 19:39 | 31.44149 | 129.97715 | 37007 ft | 481 kts | 3° |
| 2026-04-26 19:40 | 31.50835 | 129.98226 | 37005 ft | 487 kts | 4° |
| 2026-04-26 19:40 | 31.57651 | 129.98764 | 37003 ft | 492 kts | 4° |
| 2026-04-26 19:41 | 31.64481 | 129.99306 | 37002 ft | 496 kts | 4° |
| 2026-04-26 19:41 | 31.69057 | 129.99670 | 36993 ft | 493 kts | 4° |
| 2026-04-26 19:42 | 31.74736 | 130.00121 | 36991 ft | 482 kts | 4° |
| 2026-04-26 19:42 | 31.78030 | 130.00382 | 36991 ft | 477 kts | 4° |
| 2026-04-26 19:42 | 31.84592 | 130.00904 | 36992 ft | 468 kts | 4° |
| 2026-04-26 19:43 | 31.91062 | 130.01419 | 36995 ft | 461 kts | 4° |
| 2026-04-26 19:43 | 31.97385 | 130.01923 | 36995 ft | 455 kts | 4° |
| 2026-04-26 19:44 | 32.03682 | 130.02426 | 36998 ft | 450 kts | 4° |
| 2026-04-26 19:44 | 32.09927 | 130.02926 | 37000 ft | 447 kts | 4° |
| 2026-04-26 19:45 | 32.16083 | 130.03419 | 37000 ft | 444 kts | 4° |
| 2026-04-26 19:45 | 32.22235 | 130.03913 | 37001 ft | 442 kts | 4° |
| 2026-04-26 19:46 | 32.25324 | 130.04161 | 36626 ft | 450 kts | 4° |
| 2026-04-26 19:46 | 32.28482 | 130.04415 | 36093 ft | 460 kts | 4° |
| 2026-04-26 19:46 | 32.31723 | 130.04675 | 35444 ft | 472 kts | 4° |
| 2026-04-26 19:46 | 32.34998 | 130.04939 | 34742 ft | 484 kts | 4° |
| 2026-04-26 19:47 | 32.38398 | 130.05213 | 33991 ft | 494 kts | 4° |
| 2026-04-26 19:47 | 32.39566 | 130.05307 | 33728 ft | 498 kts | 4° |
| 2026-04-26 19:47 | 32.45391 | 130.05777 | 32325 ft | 506 kts | 4° |
| 2026-04-26 19:47 | 32.48908 | 130.06062 | 31066 ft | 506 kts | 4° |
| 2026-04-26 19:48 | 32.52425 | 130.06346 | 29732 ft | 507 kts | 4° |
| 2026-04-26 19:48 | 32.55942 | 130.06631 | 28575 ft | 504 kts | 4° |
| 2026-04-26 19:48 | 32.59366 | 130.06842 | 28388 ft | 486 kts | 360° |
| 2026-04-26 19:48 | 32.62747 | 130.06563 | 28126 ft | 485 kts | 351° |
| 2026-04-26 19:49 | 32.65993 | 130.05768 | 27613 ft | 476 kts | 347° |
| 2026-04-26 19:49 | 32.69176 | 130.04885 | 27037 ft | 463 kts | 346° |
| 2026-04-26 19:49 | 32.72278 | 130.04026 | 26432 ft | 453 kts | 347° |
| 2026-04-26 19:49 | 32.75316 | 130.03219 | 25840 ft | 443 kts | 347° |
| 2026-04-26 19:50 | 32.78299 | 130.02452 | 25259 ft | 435 kts | 347° |
| 2026-04-26 19:50 | 32.81280 | 130.01695 | 24692 ft | 444 kts | 347° |
| 2026-04-26 19:50 | 32.84324 | 130.00927 | 24115 ft | 456 kts | 348° |
| 2026-04-26 19:50 | 32.87415 | 130.00147 | 23496 ft | 448 kts | 348° |
| 2026-04-26 19:51 | 32.90432 | 129.99385 | 22893 ft | 436 kts | 348° |
| 2026-04-26 19:51 | 32.93366 | 129.98643 | 22308 ft | 425 kts | 347° |
| 2026-04-26 19:51 | 32.96227 | 129.97918 | 21739 ft | 416 kts | 347° |
| 2026-04-26 19:51 | 32.99037 | 129.97205 | 21179 ft | 409 kts | 347° |
| 2026-04-26 19:52 | 33.01767 | 129.96511 | 20636 ft | 404 kts | 347° |
| 2026-04-26 19:52 | 33.04553 | 129.95802 | 20091 ft | 415 kts | 347° |
| 2026-04-26 19:52 | 33.07408 | 129.95076 | 19518 ft | 423 kts | 347° |
| 2026-04-26 19:52 | 33.10257 | 129.94350 | 18930 ft | 414 kts | 347° |
| 2026-04-26 19:53 | 33.13042 | 129.93641 | 18355 ft | 403 kts | 347° |
| 2026-04-26 19:53 | 33.14842 | 129.93183 | 17989 ft | 396 kts | 347° |
| 2026-04-26 19:53 | 33.17511 | 129.92503 | 17447 ft | 388 kts | 347° |
| 2026-04-26 19:53 | 33.20122 | 129.91834 | 16968 ft | 381 kts | 347° |
| 2026-04-26 19:54 | 33.23535 | 129.90952 | 16298 ft | 375 kts | 347° |
| 2026-04-26 19:54 | 33.25262 | 129.90504 | 15957 ft | 379 kts | 347° |
| 2026-04-26 19:54 | 33.27888 | 129.89823 | 15438 ft | 390 kts | 347° |
| 2026-04-26 19:54 | 33.30548 | 129.89133 | 14889 ft | 388 kts | 347° |
| 2026-04-26 19:55 | 33.33132 | 129.88463 | 14352 ft | 378 kts | 347° |
| 2026-04-26 19:55 | 33.35681 | 129.87802 | 13828 ft | 369 kts | 347° |
| 2026-04-26 19:55 | 33.38163 | 129.87158 | 13322 ft | 361 kts | 347° |
| 2026-04-26 19:55 | 33.40602 | 129.86524 | 12826 ft | 356 kts | 347° |
| 2026-04-26 19:56 | 33.43023 | 129.85895 | 12340 ft | 355 kts | 347° |
| 2026-04-26 19:56 | 33.45434 | 129.85268 | 11852 ft | 357 kts | 347° |
| 2026-04-26 19:56 | 33.47917 | 129.84801 | 11336 ft | 365 kts | 359° |
| 2026-04-26 19:56 | 33.50408 | 129.85341 | 10924 ft | 360 kts | 16° |
| 2026-04-26 19:57 | 33.52714 | 129.86188 | 10790 ft | 340 kts | 17° |
| 2026-04-26 19:57 | 33.54924 | 129.87012 | 10655 ft | 324 kts | 17° |
| 2026-04-26 19:57 | 33.57036 | 129.87793 | 10527 ft | 311 kts | 17° |
| 2026-04-26 19:57 | 33.59090 | 129.88545 | 10409 ft | 305 kts | 17° |
| 2026-04-26 19:58 | 33.61111 | 129.89279 | 10291 ft | 302 kts | 17° |
| 2026-04-26 19:58 | 33.63090 | 129.89993 | 10170 ft | 297 kts | 16° |
| 2026-04-26 19:58 | 33.65036 | 129.90694 | 10020 ft | 287 kts | 16° |
| 2026-04-26 19:58 | 33.66932 | 129.91375 | 9726 ft | 283 kts | 16° |
| 2026-04-26 19:59 | 33.68804 | 129.92048 | 9443 ft | 279 kts | 16° |
| 2026-04-26 19:59 | 33.70650 | 129.92711 | 9160 ft | 275 kts | 16° |
| 2026-04-26 19:59 | 33.72476 | 129.93367 | 8877 ft | 272 kts | 16° |
| 2026-04-26 19:59 | 33.74278 | 129.94015 | 8596 ft | 269 kts | 16° |
| 2026-04-26 20:00 | 33.76066 | 129.94657 | 8317 ft | 266 kts | 16° |
| 2026-04-26 20:00 | 33.77844 | 129.95284 | 8120 ft | 267 kts | 13° |
| 2026-04-26 20:00 | 33.79683 | 129.95571 | 8079 ft | 272 kts | 3° |
| 2026-04-26 20:00 | 33.81578 | 129.95675 | 8066 ft | 271 kts | 2° |
| 2026-04-26 20:01 | 33.83451 | 129.95785 | 8052 ft | 267 kts | 2° |
| 2026-04-26 20:01 | 33.85285 | 129.95914 | 8047 ft | 259 kts | 3° |
| 2026-04-26 20:01 | 33.87051 | 129.96049 | 8044 ft | 249 kts | 4° |
| 2026-04-26 20:01 | 33.88685 | 129.96562 | 8058 ft | 237 kts | 26° |
| 2026-04-26 20:02 | 33.90099 | 129.97442 | 8067 ft | 220 kts | 27° |
| 2026-04-26 20:02 | 33.91400 | 129.98241 | 8050 ft | 202 kts | 26° |
| 2026-04-26 20:02 | 33.92608 | 129.98972 | 8056 ft | 194 kts | 26° |
| 2026-04-26 20:02 | 33.93405 | 129.99450 | 8053 ft | 192 kts | 26° |
| 2026-04-26 20:03 | 33.95052 | 130.00435 | 8082 ft | 210 kts | 26° |
| 2026-04-26 20:03 | 33.96404 | 130.01241 | 8075 ft | 221 kts | 26° |
| 2026-04-26 20:03 | 33.97788 | 130.02072 | 8069 ft | 223 kts | 28° |
| 2026-04-26 20:03 | 33.98985 | 130.03304 | 8079 ft | 239 kts | 50° |
| 2026-04-26 20:04 | 34.00074 | 130.04873 | 8071 ft | 247 kts | 50° |
| 2026-04-26 20:04 | 34.01195 | 130.06453 | 8060 ft | 247 kts | 49° |
| 2026-04-26 20:04 | 34.02316 | 130.08011 | 8051 ft | 245 kts | 49° |
| 2026-04-26 20:04 | 34.03436 | 130.09561 | 8054 ft | 244 kts | 49° |
| 2026-04-26 20:05 | 34.04557 | 130.11109 | 8054 ft | 244 kts | 49° |
| 2026-04-26 20:05 | 34.05658 | 130.12672 | 8053 ft | 244 kts | 54° |
| 2026-04-26 20:05 | 34.06337 | 130.14533 | 8071 ft | 243 kts | 73° |
| 2026-04-26 20:05 | 34.06838 | 130.16462 | 8061 ft | 244 kts | 72° |
| 2026-04-26 20:06 | 34.07361 | 130.18407 | 8060 ft | 245 kts | 72° |
| 2026-04-26 20:06 | 34.07896 | 130.20360 | 8061 ft | 245 kts | 72° |
| 2026-04-26 20:06 | 34.08433 | 130.22305 | 8062 ft | 246 kts | 72° |
| 2026-04-26 20:06 | 34.08963 | 130.24216 | 8052 ft | 241 kts | 71° |
| 2026-04-26 20:07 | 34.09445 | 130.26163 | 8046 ft | 244 kts | 81° |
| 2026-04-26 20:07 | 34.09398 | 130.28214 | 8072 ft | 245 kts | 96° |
| 2026-04-26 20:07 | 34.09244 | 130.30265 | 8065 ft | 246 kts | 95° |
| 2026-04-26 20:07 | 34.09109 | 130.32326 | 8060 ft | 247 kts | 94° |
| 2026-04-26 20:08 | 34.08981 | 130.34399 | 8057 ft | 247 kts | 94° |
| 2026-04-26 20:08 | 34.08740 | 130.36412 | 8042 ft | 246 kts | 111° |
| 2026-04-26 20:08 | 34.07751 | 130.38043 | 8066 ft | 242 kts | 144° |
| 2026-04-26 20:08 | 34.06221 | 130.38828 | 7834 ft | 239 kts | 174° |
| 2026-04-26 20:09 | 34.04588 | 130.38704 | 7615 ft | 233 kts | 194° |
| 2026-04-26 20:09 | 34.03020 | 130.38223 | 7379 ft | 231 kts | 197° |
| 2026-04-26 20:09 | 34.01470 | 130.37690 | 7135 ft | 230 kts | 198° |
| 2026-04-26 20:09 | 33.99951 | 130.37164 | 6916 ft | 229 kts | 198° |
| 2026-04-26 20:10 | 33.98417 | 130.36639 | 6682 ft | 229 kts | 198° |
| 2026-04-26 20:10 | 33.96885 | 130.36121 | 6448 ft | 228 kts | 198° |
| 2026-04-26 20:10 | 33.95356 | 130.35609 | 6232 ft | 228 kts | 197° |
| 2026-04-26 20:10 | 33.93833 | 130.35101 | 5999 ft | 225 kts | 197° |
| 2026-04-26 20:11 | 33.92330 | 130.34604 | 5774 ft | 222 kts | 197° |
| 2026-04-26 20:11 | 33.90854 | 130.34116 | 5556 ft | 219 kts | 197° |
| 2026-04-26 20:11 | 33.89389 | 130.33633 | 5350 ft | 217 kts | 197° |
| 2026-04-26 20:12 | 33.86530 | 130.32692 | 4928 ft | 216 kts | 197° |
| 2026-04-26 20:12 | 33.85071 | 130.32213 | 4712 ft | 218 kts | 197° |
| 2026-04-26 20:12 | 33.83610 | 130.31734 | 4492 ft | 216 kts | 197° |
| 2026-04-26 20:12 | 33.82187 | 130.31268 | 4262 ft | 205 kts | 197° |
| 2026-04-26 20:13 | 33.80843 | 130.30830 | 4061 ft | 197 kts | 197° |
| 2026-04-26 20:13 | 33.79506 | 130.30805 | 3840 ft | 193 kts | 161° |
| 2026-04-26 20:13 | 33.78363 | 130.31553 | 3697 ft | 183 kts | 153° |
| 2026-04-26 20:13 | 33.77252 | 130.32289 | 3511 ft | 182 kts | 153° |
| 2026-04-26 20:14 | 33.76162 | 130.33023 | 3331 ft | 181 kts | 153° |
| 2026-04-26 20:14 | 33.75074 | 130.33765 | 3154 ft | 177 kts | 152° |
| 2026-04-26 20:14 | 33.74027 | 130.34483 | 2971 ft | 169 kts | 153° |
| 2026-04-26 20:14 | 33.73023 | 130.35171 | 2794 ft | 162 kts | 153° |
| 2026-04-26 20:15 | 33.72069 | 130.35826 | 2665 ft | 152 kts | 153° |
| 2026-04-26 20:15 | 33.71147 | 130.36458 | 2585 ft | 158 kts | 153° |
| 2026-04-26 20:15 | 33.70204 | 130.37104 | 2380 ft | 152 kts | 153° |
| 2026-04-26 20:15 | 33.69309 | 130.37720 | 2168 ft | 144 kts | 153° |
| 2026-04-26 20:16 | 33.68444 | 130.38312 | 2007 ft | 146 kts | 153° |
| 2026-04-26 20:16 | 33.67559 | 130.38919 | 1804 ft | 147 kts | 153° |
| 2026-04-26 20:16 | 33.66677 | 130.39524 | 1616 ft | 146 kts | 153° |
| 2026-04-26 20:16 | 33.65791 | 130.40132 | 1414 ft | 146 kts | 153° |
| 2026-04-26 20:17 | 33.64916 | 130.40733 | 1230 ft | 145 kts | 153° |
| 2026-04-26 20:17 | 33.64034 | 130.41338 | 1032 ft | 146 kts | 153° |
| 2026-04-26 20:17 | 33.63127 | 130.41960 | 851 ft | 154 kts | 153° |
| 2026-04-26 20:17 | 33.62511 | 130.42384 | 706 ft | 150 kts | 153° |
| 2026-04-26 20:18 | 33.61337 | 130.43201 | 490 ft | 145 kts | 153° |
| 2026-04-26 20:18 | 33.60462 | 130.43805 | 259 ft | 143 kts | 153° |
| 2026-04-26 20:18 | 33.59605 | 130.44388 | 49 ft | 141 kts | 152° |
| 2026-04-26 20:18 | 33.58819 | 130.44910 | 29 ft | 117 kts | 150° |
| 2026-04-26 20:19 | 33.58245 | 130.45305 | 32 ft | 72 kts | 150° |
| 2026-04-26 20:19 | 33.57943 | 130.45419 | 34 ft | 21 kts | 180° |
| 2026-04-26 20:19 | 33.57906 | 130.45418 | 34 ft | 2 kts | 182° |
| 2026-04-26 20:19 | 33.57885 | 130.45417 | 34 ft | 4 kts | 182° |
| 2026-04-26 20:20 | 33.57858 | 130.45404 | 34 ft | 5 kts | 215° |
| 2026-04-26 20:20 | 33.57848 | 130.45364 | 34 ft | 6 kts | 284° |
| 2026-04-26 20:20 | 33.57880 | 130.45326 | 33 ft | 7 kts | 324° |
| 2026-04-26 20:20 | 33.57929 | 130.45292 | 33 ft | 9 kts | 334° |
| 2026-04-26 20:21 | 33.57988 | 130.45251 | 33 ft | 11 kts | 328° |
| 2026-04-26 20:21 | 33.58033 | 130.45183 | 33 ft | 11 kts | 259° |
| 2026-04-26 20:21 | 33.58042 | 130.45101 | 32 ft | 11 kts | 331° |
| 2026-04-26 20:21 | 33.58113 | 130.45052 | 31 ft | 13 kts | 331° |
| 2026-04-26 20:22 | 33.58195 | 130.44997 | 29 ft | 14 kts | 330° |
| 2026-04-26 20:22 | 33.58284 | 130.44930 | 30 ft | 16 kts | 323° |
| 2026-04-26 20:22 | 33.58313 | 130.44811 | 30 ft | 16 kts | 237° |
| 2026-04-26 20:22 | 33.58273 | 130.44756 | 30 ft | 1 kts | 239° |
| 2026-04-26 20:23 | 33.58267 | 130.44746 | 30 ft | 2 kts | 227° |
| 2026-04-26 20:23 | 33.58250 | 130.44736 | 29 ft | 3 kts | 184° |
| 2026-04-26 20:23 | 33.58237 | 130.44747 | 30 ft | 0 kts | 146° |